Hlavní strana
METAR-TAF:

METAR-TAF

Letiště :

Letiště Odense

Odense, Dánsko

zeměpisná šířka: 55-29N, zeměpisná délka: 010-20E, výška: 17 m

Aktuální stav počasí

Zpráva byla vytvořena před 7 hodinami a 42 minutami, v 13:50 UTC
Západojihozápadní vítr 8 kt, proměnlivý mezi jihozápadním a západoseverozápadním
Teplota 10°C
Vlhkost vzduchu 82%
Tlak 1037 hPa
Viditelnost 10 km a více
Skoro jasno ve výšce 2000 ft

METAR: EKOD 271350Z 25008KT 230V300 9999 FEW020 10/07 Q1037

Čas: 22:32 (21:32 UTC)

Předpověď počasí

Zpráva byla vytvořena před 11 hodinami a 3 minutami, v 10:29 UTC
Předpověď platná od 27 v 10 UTC do 27 v 14 UTC
Západoseverozápadní vítr 8 kt
Viditelnost: 8000 m
Oblačno až skoro zataženo ve výšce 600 ft
Změna
od 27 v 10 UTC do 27 v 13 UTC
Polojasno ve výšce 1100 ft

TAF: EKOD 271029Z 2710/2714 30008KT 8000 BKN006 BECMG 2710/2713 SCT011

Stav a předpovědi počasí z více než 4 000 letišť (zprávy METAR a TAF).

Červené a žluté tečky na mapě představují dostupné meteorologické stanice.

Když kurzor umístíte na tečku, zobrazí se název stanice.

Pak kliknutím zobrazíte stav a předpověď počasí.

Chcete-li změnit mapu, kliknutím na zelené tlačítko se znaménkem +mapu přiblížíte, kliknutím na zelené tlačítko se znaménkem – mapu oddálíte a kliknutím na zelené šipky přejdete na sousední mapy.


METAR-TAF: